sensor_id;sensor_type;location;lat;lon;timestamp;P1;durP1;ratioP1;P2;durP2;ratioP2
42196;SDS011;27866;48.146;17.098;2023-11-19T00:04:06;7.28;;;5.47;;
42196;SDS011;27866;48.146;17.098;2023-11-19T00:08:17;9.05;;;5.60;;
42196;SDS011;27866;48.146;17.098;2023-11-19T00:12:29;8.82;;;5.80;;
42196;SDS011;27866;48.146;17.098;2023-11-19T00:16:40;8.02;;;5.70;;
42196;SDS011;27866;48.146;17.098;2023-11-19T00:20:51;9.13;;;6.22;;
42196;SDS011;27866;48.146;17.098;2023-11-19T00:25:02;8.93;;;5.85;;
42196;SDS011;27866;48.146;17.098;2023-11-19T00:29:14;9.20;;;5.40;;
42196;SDS011;27866;48.146;17.098;2023-11-19T00:33:26;9.80;;;5.63;;
42196;SDS011;27866;48.146;17.098;2023-11-19T00:37:37;8.65;;;5.80;;
42196;SDS011;27866;48.146;17.098;2023-11-19T00:41:48;8.30;;;5.63;;
42196;SDS011;27866;48.146;17.098;2023-11-19T00:45:59;8.30;;;5.55;;
42196;SDS011;27866;48.146;17.098;2023-11-19T00:50:11;9.77;;;5.65;;
42196;SDS011;27866;48.146;17.098;2023-11-19T00:54:23;12.68;;;6.35;;
42196;SDS011;27866;48.146;17.098;2023-11-19T00:58:35;10.52;;;6.75;;
42196;SDS011;27866;48.146;17.098;2023-11-19T01:02:47;10.82;;;6.80;;
42196;SDS011;27866;48.146;17.098;2023-11-19T01:07:01;14.13;;;8.52;;
42196;SDS011;27866;48.146;17.098;2023-11-19T01:11:20;14.13;;;9.02;;
42196;SDS011;27866;48.146;17.098;2023-11-19T01:15:32;15.55;;;8.77;;
42196;SDS011;27866;48.146;17.098;2023-11-19T01:19:43;14.63;;;8.45;;
42196;SDS011;27866;48.146;17.098;2023-11-19T01:23:54;16.13;;;9.07;;
42196;SDS011;27866;48.146;17.098;2023-11-19T01:28:05;14.45;;;8.45;;
42196;SDS011;27866;48.146;17.098;2023-11-19T01:32:16;15.10;;;8.88;;
42196;SDS011;27866;48.146;17.098;2023-11-19T01:36:28;14.75;;;9.15;;
42196;SDS011;27866;48.146;17.098;2023-11-19T01:40:39;15.13;;;9.55;;
42196;SDS011;27866;48.146;17.098;2023-11-19T01:45:00;14.60;;;9.27;;
42196;SDS011;27866;48.146;17.098;2023-11-19T01:49:11;14.85;;;9.25;;
42196;SDS011;27866;48.146;17.098;2023-11-19T01:53:25;18.80;;;9.73;;
42196;SDS011;27866;48.146;17.098;2023-11-19T01:57:37;18.17;;;9.82;;
42196;SDS011;27866;48.146;17.098;2023-11-19T02:01:51;15.65;;;9.55;;
42196;SDS011;27866;48.146;17.098;2023-11-19T02:06:05;14.57;;;9.05;;
42196;SDS011;27866;48.146;17.098;2023-11-19T02:10:17;12.95;;;8.50;;
42196;SDS011;27866;48.146;17.098;2023-11-19T02:14:29;13.05;;;8.38;;
42196;SDS011;27866;48.146;17.098;2023-11-19T02:18:41;13.18;;;8.15;;
42196;SDS011;27866;48.146;17.098;2023-11-19T02:22:53;11.15;;;7.75;;
42196;SDS011;27866;48.146;17.098;2023-11-19T02:27:08;10.57;;;7.32;;
42196;SDS011;27866;48.146;17.098;2023-11-19T02:31:28;11.87;;;7.43;;
42196;SDS011;27866;48.146;17.098;2023-11-19T02:35:39;11.73;;;7.60;;
42196;SDS011;27866;48.146;17.098;2023-11-19T02:39:51;11.48;;;7.65;;
42196;SDS011;27866;48.146;17.098;2023-11-19T02:44:02;11.52;;;7.72;;
42196;SDS011;27866;48.146;17.098;2023-11-19T02:48:16;11.70;;;7.65;;
42196;SDS011;27866;48.146;17.098;2023-11-19T02:52:28;12.55;;;7.60;;
42196;SDS011;27866;48.146;17.098;2023-11-19T02:56:42;11.45;;;7.85;;
42196;SDS011;27866;48.146;17.098;2023-11-19T03:00:53;11.43;;;7.43;;
42196;SDS011;27866;48.146;17.098;2023-11-19T03:05:10;10.57;;;7.30;;
42196;SDS011;27866;48.146;17.098;2023-11-19T03:09:25;9.98;;;7.82;;
42196;SDS011;27866;48.146;17.098;2023-11-19T03:13:36;12.15;;;7.47;;
42196;SDS011;27866;48.146;17.098;2023-11-19T03:17:47;8.82;;;6.72;;
42196;SDS011;27866;48.146;17.098;2023-11-19T03:21:58;10.13;;;6.90;;
42196;SDS011;27866;48.146;17.098;2023-11-19T03:26:11;13.27;;;7.47;;
42196;SDS011;27866;48.146;17.098;2023-11-19T03:30:23;11.43;;;7.35;;
42196;SDS011;27866;48.146;17.098;2023-11-19T03:34:35;10.38;;;7.20;;
42196;SDS011;27866;48.146;17.098;2023-11-19T03:38:46;10.25;;;6.40;;
42196;SDS011;27866;48.146;17.098;2023-11-19T03:42:57;12.55;;;7.32;;
42196;SDS011;27866;48.146;17.098;2023-11-19T03:47:09;12.10;;;6.47;;
42196;SDS011;27866;48.146;17.098;2023-11-19T03:51:20;9.65;;;6.38;;
42196;SDS011;27866;48.146;17.098;2023-11-19T03:55:32;9.32;;;6.63;;
42196;SDS011;27866;48.146;17.098;2023-11-19T03:59:43;9.35;;;6.72;;
42196;SDS011;27866;48.146;17.098;2023-11-19T04:03:54;10.30;;;7.30;;
42196;SDS011;27866;48.146;17.098;2023-11-19T04:08:06;13.90;;;9.35;;
42196;SDS011;27866;48.146;17.098;2023-11-19T04:12:17;14.70;;;9.45;;
42196;SDS011;27866;48.146;17.098;2023-11-19T04:16:28;17.83;;;10.23;;
42196;SDS011;27866;48.146;17.098;2023-11-19T04:20:40;16.48;;;9.70;;
42196;SDS011;27866;48.146;17.098;2023-11-19T04:24:52;15.98;;;10.38;;
42196;SDS011;27866;48.146;17.098;2023-11-19T04:29:03;18.40;;;10.52;;
42196;SDS011;27866;48.146;17.098;2023-11-19T04:33:14;17.50;;;10.30;;
42196;SDS011;27866;48.146;17.098;2023-11-19T04:37:26;17.38;;;10.93;;
42196;SDS011;27866;48.146;17.098;2023-11-19T04:41:45;18.85;;;10.68;;
42196;SDS011;27866;48.146;17.098;2023-11-19T04:45:59;21.35;;;12.23;;
42196;SDS011;27866;48.146;17.098;2023-11-19T04:50:13;21.77;;;13.45;;
42196;SDS011;27866;48.146;17.098;2023-11-19T04:54:24;20.85;;;13.50;;
42196;SDS011;27866;48.146;17.098;2023-11-19T04:58:35;19.42;;;12.82;;
42196;SDS011;27866;48.146;17.098;2023-11-19T05:02:47;18.65;;;12.27;;
42196;SDS011;27866;48.146;17.098;2023-11-19T05:06:58;21.60;;;13.35;;
42196;SDS011;27866;48.146;17.098;2023-11-19T05:11:10;17.80;;;12.00;;
42196;SDS011;27866;48.146;17.098;2023-11-19T05:15:22;15.18;;;9.98;;
42196;SDS011;27866;48.146;17.098;2023-11-19T05:19:34;19.88;;;11.23;;
42196;SDS011;27866;48.146;17.098;2023-11-19T05:23:45;17.83;;;10.82;;
42196;SDS011;27866;48.146;17.098;2023-11-19T05:27:57;17.90;;;10.55;;
42196;SDS011;27866;48.146;17.098;2023-11-19T05:32:08;16.40;;;10.70;;
42196;SDS011;27866;48.146;17.098;2023-11-19T05:36:19;19.35;;;10.75;;
42196;SDS011;27866;48.146;17.098;2023-11-19T05:40:30;18.15;;;11.40;;
42196;SDS011;27866;48.146;17.098;2023-11-19T05:44:43;21.67;;;11.95;;
42196;SDS011;27866;48.146;17.098;2023-11-19T05:48:54;18.73;;;11.90;;
42196;SDS011;27866;48.146;17.098;2023-11-19T05:53:05;19.60;;;11.95;;
42196;SDS011;27866;48.146;17.098;2023-11-19T05:57:19;17.90;;;11.30;;
42196;SDS011;27866;48.146;17.098;2023-11-19T06:01:34;19.73;;;11.43;;
42196;SDS011;27866;48.146;17.098;2023-11-19T06:05:45;17.85;;;10.68;;
42196;SDS011;27866;48.146;17.098;2023-11-19T06:09:57;18.13;;;11.00;;
42196;SDS011;27866;48.146;17.098;2023-11-19T06:14:08;15.73;;;10.60;;
42196;SDS011;27866;48.146;17.098;2023-11-19T06:18:19;15.95;;;10.55;;
42196;SDS011;27866;48.146;17.098;2023-11-19T06:22:30;18.65;;;11.23;;
42196;SDS011;27866;48.146;17.098;2023-11-19T06:26:41;16.88;;;11.20;;
42196;SDS011;27866;48.146;17.098;2023-11-19T06:30:52;18.48;;;11.68;;
42196;SDS011;27866;48.146;17.098;2023-11-19T06:35:03;16.80;;;11.55;;
42196;SDS011;27866;48.146;17.098;2023-11-19T06:39:15;18.33;;;11.43;;
42196;SDS011;27866;48.146;17.098;2023-11-19T06:43:28;17.75;;;11.45;;
42196;SDS011;27866;48.146;17.098;2023-11-19T06:47:39;16.65;;;11.60;;
42196;SDS011;27866;48.146;17.098;2023-11-19T06:51:50;17.77;;;11.30;;
42196;SDS011;27866;48.146;17.098;2023-11-19T06:56:02;18.40;;;12.25;;
42196;SDS011;27866;48.146;17.098;2023-11-19T07:04:28;21.25;;;13.75;;
42196;SDS011;27866;48.146;17.098;2023-11-19T07:08:42;27.40;;;15.73;;
42196;SDS011;27866;48.146;17.098;2023-11-19T07:12:57;28.73;;;16.92;;
42196;SDS011;27866;48.146;17.098;2023-11-19T07:17:08;28.27;;;16.60;;
42196;SDS011;27866;48.146;17.098;2023-11-19T07:21:20;32.97;;;17.95;;
42196;SDS011;27866;48.146;17.098;2023-11-19T07:25:34;27.53;;;16.93;;
42196;SDS011;27866;48.146;17.098;2023-11-19T07:29:47;27.38;;;15.35;;
42196;SDS011;27866;48.146;17.098;2023-11-19T07:33:58;28.40;;;17.08;;
42196;SDS011;27866;48.146;17.098;2023-11-19T07:38:09;27.83;;;16.60;;
42196;SDS011;27866;48.146;17.098;2023-11-19T07:42:20;24.92;;;15.90;;
42196;SDS011;27866;48.146;17.098;2023-11-19T07:46:31;27.55;;;16.05;;
42196;SDS011;27866;48.146;17.098;2023-11-19T07:50:43;27.13;;;16.10;;
42196;SDS011;27866;48.146;17.098;2023-11-19T07:54:54;25.80;;;16.25;;
42196;SDS011;27866;48.146;17.098;2023-11-19T07:59:05;26.95;;;14.82;;
42196;SDS011;27866;48.146;17.098;2023-11-19T08:03:17;22.90;;;13.27;;
42196;SDS011;27866;48.146;17.098;2023-11-19T08:07:29;13.85;;;9.45;;
42196;SDS011;27866;48.146;17.098;2023-11-19T08:11:40;12.43;;;9.65;;
42196;SDS011;27866;48.146;17.098;2023-11-19T08:15:52;10.73;;;7.65;;
42196;SDS011;27866;48.146;17.098;2023-11-19T08:20:03;12.82;;;8.13;;
42196;SDS011;27866;48.146;17.098;2023-11-19T08:24:20;11.63;;;8.15;;
42196;SDS011;27866;48.146;17.098;2023-11-19T08:28:31;12.98;;;8.27;;
42196;SDS011;27866;48.146;17.098;2023-11-19T08:32:44;12.45;;;7.85;;
42196;SDS011;27866;48.146;17.098;2023-11-19T08:36:56;10.40;;;7.55;;
42196;SDS011;27866;48.146;17.098;2023-11-19T08:41:07;11.82;;;6.88;;
42196;SDS011;27866;48.146;17.098;2023-11-19T08:45:18;10.90;;;7.32;;
42196;SDS011;27866;48.146;17.098;2023-11-19T08:49:29;12.65;;;7.78;;
42196;SDS011;27866;48.146;17.098;2023-11-19T08:53:40;10.30;;;7.38;;
42196;SDS011;27866;48.146;17.098;2023-11-19T08:57:51;9.32;;;7.05;;
42196;SDS011;27866;48.146;17.098;2023-11-19T09:02:03;10.70;;;7.78;;
42196;SDS011;27866;48.146;17.098;2023-11-19T09:06:16;10.75;;;7.57;;
42196;SDS011;27866;48.146;17.098;2023-11-19T09:10:27;10.85;;;7.28;;
42196;SDS011;27866;48.146;17.098;2023-11-19T09:14:39;9.60;;;7.18;;
42196;SDS011;27866;48.146;17.098;2023-11-19T09:18:52;10.30;;;7.43;;
42196;SDS011;27866;48.146;17.098;2023-11-19T09:23:03;12.93;;;8.25;;
42196;SDS011;27866;48.146;17.098;2023-11-19T09:27:19;11.77;;;8.00;;
42196;SDS011;27866;48.146;17.098;2023-11-19T09:31:31;9.68;;;6.75;;
42196;SDS011;27866;48.146;17.098;2023-11-19T09:35:42;10.63;;;7.47;;
42196;SDS011;27866;48.146;17.098;2023-11-19T09:39:54;11.85;;;8.05;;
42196;SDS011;27866;48.146;17.098;2023-11-19T09:44:05;9.45;;;6.97;;
42196;SDS011;27866;48.146;17.098;2023-11-19T09:48:17;12.13;;;8.00;;
42196;SDS011;27866;48.146;17.098;2023-11-19T09:52:29;13.40;;;8.10;;
42196;SDS011;27866;48.146;17.098;2023-11-19T09:56:40;12.20;;;8.32;;
42196;SDS011;27866;48.146;17.098;2023-11-19T10:00:53;11.90;;;8.18;;
42196;SDS011;27866;48.146;17.098;2023-11-19T10:05:05;11.77;;;7.55;;
42196;SDS011;27866;48.146;17.098;2023-11-19T10:09:18;12.03;;;8.07;;
42196;SDS011;27866;48.146;17.098;2023-11-19T10:13:29;11.10;;;7.72;;
42196;SDS011;27866;48.146;17.098;2023-11-19T10:17:40;13.63;;;8.35;;
42196;SDS011;27866;48.146;17.098;2023-11-19T10:21:52;12.77;;;8.40;;
42196;SDS011;27866;48.146;17.098;2023-11-19T10:26:03;13.02;;;8.15;;
42196;SDS011;27866;48.146;17.098;2023-11-19T10:30:27;10.90;;;8.50;;
42196;SDS011;27866;48.146;17.098;2023-11-19T10:34:39;11.27;;;8.10;;
42196;SDS011;27866;48.146;17.098;2023-11-19T10:38:52;13.57;;;8.02;;
42196;SDS011;27866;48.146;17.098;2023-11-19T10:43:05;10.13;;;8.25;;
42196;SDS011;27866;48.146;17.098;2023-11-19T10:47:18;11.27;;;8.07;;
42196;SDS011;27866;48.146;17.098;2023-11-19T10:51:30;13.60;;;8.80;;
42196;SDS011;27866;48.146;17.098;2023-11-19T10:55:42;11.50;;;8.57;;
42196;SDS011;27866;48.146;17.098;2023-11-19T11:00:00;10.30;;;7.85;;
42196;SDS011;27866;48.146;17.098;2023-11-19T11:04:22;11.27;;;8.52;;
42196;SDS011;27866;48.146;17.098;2023-11-19T11:08:36;12.00;;;8.77;;
42196;SDS011;27866;48.146;17.098;2023-11-19T11:12:49;11.43;;;8.35;;
42196;SDS011;27866;48.146;17.098;2023-11-19T11:17:06;11.23;;;8.80;;
42196;SDS011;27866;48.146;17.098;2023-11-19T11:21:22;15.33;;;9.27;;
42196;SDS011;27866;48.146;17.098;2023-11-19T11:30:31;17.25;;;9.25;;
42196;SDS011;27866;48.146;17.098;2023-11-19T11:39:21;13.20;;;8.98;;
42196;SDS011;27866;48.146;17.098;2023-11-19T11:43:43;19.25;;;9.75;;
42196;SDS011;27866;48.146;17.098;2023-11-19T11:48:15;18.27;;;8.73;;
42196;SDS011;27866;48.146;17.098;2023-11-19T11:52:28;13.52;;;9.38;;
42196;SDS011;27866;48.146;17.098;2023-11-19T11:56:40;11.80;;;8.38;;
42196;SDS011;27866;48.146;17.098;2023-11-19T12:00:51;13.27;;;9.55;;
42196;SDS011;27866;48.146;17.098;2023-11-19T12:05:04;13.88;;;9.55;;
42196;SDS011;27866;48.146;17.098;2023-11-19T12:09:19;12.82;;;8.80;;
42196;SDS011;27866;48.146;17.098;2023-11-19T12:13:44;12.20;;;9.05;;
42196;SDS011;27866;48.146;17.098;2023-11-19T12:18:03;12.27;;;9.43;;
42196;SDS011;27866;48.146;17.098;2023-11-19T12:22:15;14.60;;;9.43;;
42196;SDS011;27866;48.146;17.098;2023-11-19T12:26:31;15.10;;;9.93;;
42196;SDS011;27866;48.146;17.098;2023-11-19T12:30:48;12.25;;;9.10;;
42196;SDS011;27866;48.146;17.098;2023-11-19T12:34:59;14.40;;;8.85;;
42196;SDS011;27866;48.146;17.098;2023-11-19T12:39:10;15.40;;;9.18;;
42196;SDS011;27866;48.146;17.098;2023-11-19T12:43:23;16.95;;;10.25;;
42196;SDS011;27866;48.146;17.098;2023-11-19T12:47:34;15.00;;;10.23;;
42196;SDS011;27866;48.146;17.098;2023-11-19T12:51:45;12.95;;;9.70;;
42196;SDS011;27866;48.146;17.098;2023-11-19T12:55:59;13.40;;;9.98;;
42196;SDS011;27866;48.146;17.098;2023-11-19T13:00:19;14.30;;;10.23;;
42196;SDS011;27866;48.146;17.098;2023-11-19T13:04:35;16.80;;;11.07;;
42196;SDS011;27866;48.146;17.098;2023-11-19T13:08:48;15.07;;;9.73;;
42196;SDS011;27866;48.146;17.098;2023-11-19T13:13:04;15.07;;;9.98;;
42196;SDS011;27866;48.146;17.098;2023-11-19T13:17:19;13.88;;;10.15;;
42196;SDS011;27866;48.146;17.098;2023-11-19T13:21:31;13.57;;;10.13;;
42196;SDS011;27866;48.146;17.098;2023-11-19T13:25:42;14.57;;;10.00;;
42196;SDS011;27866;48.146;17.098;2023-11-19T13:29:55;16.38;;;10.40;;
42196;SDS011;27866;48.146;17.098;2023-11-19T13:34:07;15.13;;;10.13;;
42196;SDS011;27866;48.146;17.098;2023-11-19T13:38:18;15.63;;;10.50;;
42196;SDS011;27866;48.146;17.098;2023-11-19T13:42:29;17.13;;;9.65;;
42196;SDS011;27866;48.146;17.098;2023-11-19T13:46:40;14.15;;;10.45;;
42196;SDS011;27866;48.146;17.098;2023-11-19T13:50:52;16.95;;;10.25;;
42196;SDS011;27866;48.146;17.098;2023-11-19T13:55:03;16.27;;;10.88;;
42196;SDS011;27866;48.146;17.098;2023-11-19T13:59:17;16.52;;;10.05;;
42196;SDS011;27866;48.146;17.098;2023-11-19T14:03:28;16.92;;;11.43;;
42196;SDS011;27866;48.146;17.098;2023-11-19T14:07:39;17.35;;;11.52;;
42196;SDS011;27866;48.146;17.098;2023-11-19T14:11:51;18.55;;;11.95;;
42196;SDS011;27866;48.146;17.098;2023-11-19T14:16:03;16.85;;;11.75;;
42196;SDS011;27866;48.146;17.098;2023-11-19T14:20:16;17.10;;;12.27;;
42196;SDS011;27866;48.146;17.098;2023-11-19T14:24:28;20.90;;;13.30;;
42196;SDS011;27866;48.146;17.098;2023-11-19T14:28:39;20.63;;;14.35;;
42196;SDS011;27866;48.146;17.098;2023-11-19T14:32:50;23.83;;;14.55;;
42196;SDS011;27866;48.146;17.098;2023-11-19T14:37:01;20.73;;;14.07;;
42196;SDS011;27866;48.146;17.098;2023-11-19T14:41:12;24.92;;;13.98;;
42196;SDS011;27866;48.146;17.098;2023-11-19T14:45:24;21.52;;;14.15;;
42196;SDS011;27866;48.146;17.098;2023-11-19T14:49:35;24.80;;;15.40;;
42196;SDS011;27866;48.146;17.098;2023-11-19T14:53:47;24.35;;;15.63;;
42196;SDS011;27866;48.146;17.098;2023-11-19T14:57:58;28.20;;;16.90;;
42196;SDS011;27866;48.146;17.098;2023-11-19T15:02:10;24.52;;;15.15;;
42196;SDS011;27866;48.146;17.098;2023-11-19T15:06:24;27.42;;;16.50;;
42196;SDS011;27866;48.146;17.098;2023-11-19T15:10:41;26.75;;;15.68;;
42196;SDS011;27866;48.146;17.098;2023-11-19T15:14:52;26.27;;;16.08;;
42196;SDS011;27866;48.146;17.098;2023-11-19T15:19:04;26.17;;;16.75;;
42196;SDS011;27866;48.146;17.098;2023-11-19T15:23:15;26.80;;;15.68;;
42196;SDS011;27866;48.146;17.098;2023-11-19T15:27:26;24.08;;;15.77;;
42196;SDS011;27866;48.146;17.098;2023-11-19T15:31:39;22.10;;;15.32;;
42196;SDS011;27866;48.146;17.098;2023-11-19T15:35:50;25.00;;;15.70;;
42196;SDS011;27866;48.146;17.098;2023-11-19T15:40:02;26.35;;;15.93;;
42196;SDS011;27866;48.146;17.098;2023-11-19T15:44:15;23.80;;;15.97;;
42196;SDS011;27866;48.146;17.098;2023-11-19T15:48:27;27.83;;;16.00;;
42196;SDS011;27866;48.146;17.098;2023-11-19T15:52:38;23.75;;;15.45;;
42196;SDS011;27866;48.146;17.098;2023-11-19T15:56:50;24.85;;;16.15;;
42196;SDS011;27866;48.146;17.098;2023-11-19T16:01:01;25.80;;;17.15;;
42196;SDS011;27866;48.146;17.098;2023-11-19T16:05:12;25.63;;;16.58;;
42196;SDS011;27866;48.146;17.098;2023-11-19T16:09:23;31.02;;;18.05;;
42196;SDS011;27866;48.146;17.098;2023-11-19T16:13:37;31.05;;;17.67;;
42196;SDS011;27866;48.146;17.098;2023-11-19T16:17:48;28.33;;;17.90;;
42196;SDS011;27866;48.146;17.098;2023-11-19T16:22:00;30.88;;;18.55;;
42196;SDS011;27866;48.146;17.098;2023-11-19T16:26:20;29.05;;;17.67;;
42196;SDS011;27866;48.146;17.098;2023-11-19T16:30:31;29.02;;;18.60;;
42196;SDS011;27866;48.146;17.098;2023-11-19T16:34:42;30.38;;;18.17;;
42196;SDS011;27866;48.146;17.098;2023-11-19T16:38:53;31.15;;;19.00;;
42196;SDS011;27866;48.146;17.098;2023-11-19T16:43:05;31.52;;;19.63;;
42196;SDS011;27866;48.146;17.098;2023-11-19T16:47:16;31.30;;;19.55;;
42196;SDS011;27866;48.146;17.098;2023-11-19T16:51:27;32.38;;;19.08;;
42196;SDS011;27866;48.146;17.098;2023-11-19T16:55:38;36.05;;;20.48;;
42196;SDS011;27866;48.146;17.098;2023-11-19T16:59:49;38.95;;;21.85;;
42196;SDS011;27866;48.146;17.098;2023-11-19T17:04:05;36.33;;;22.00;;
42196;SDS011;27866;48.146;17.098;2023-11-19T17:08:18;38.95;;;22.25;;
42196;SDS011;27866;48.146;17.098;2023-11-19T17:12:29;34.30;;;20.92;;
42196;SDS011;27866;48.146;17.098;2023-11-19T17:16:41;36.25;;;22.75;;
42196;SDS011;27866;48.146;17.098;2023-11-19T17:20:52;37.67;;;22.65;;
42196;SDS011;27866;48.146;17.098;2023-11-19T17:25:04;41.90;;;23.70;;
42196;SDS011;27866;48.146;17.098;2023-11-19T17:29:20;38.00;;;23.38;;
42196;SDS011;27866;48.146;17.098;2023-11-19T17:33:32;39.28;;;22.13;;
42196;SDS011;27866;48.146;17.098;2023-11-19T17:37:43;34.38;;;21.50;;
42196;SDS011;27866;48.146;17.098;2023-11-19T17:41:54;38.45;;;21.67;;
42196;SDS011;27866;48.146;17.098;2023-11-19T17:46:05;31.10;;;19.27;;
42196;SDS011;27866;48.146;17.098;2023-11-19T17:50:17;37.83;;;20.75;;
42196;SDS011;27866;48.146;17.098;2023-11-19T17:54:28;34.08;;;20.10;;
42196;SDS011;27866;48.146;17.098;2023-11-19T17:58:39;30.83;;;20.70;;
42196;SDS011;27866;48.146;17.098;2023-11-19T18:02:51;33.85;;;20.02;;
42196;SDS011;27866;48.146;17.098;2023-11-19T18:07:02;38.15;;;21.60;;
42196;SDS011;27866;48.146;17.098;2023-11-19T18:11:14;45.65;;;24.20;;
42196;SDS011;27866;48.146;17.098;2023-11-19T18:15:25;65.55;;;34.15;;
42196;SDS011;27866;48.146;17.098;2023-11-19T18:19:36;71.85;;;36.00;;
42196;SDS011;27866;48.146;17.098;2023-11-19T18:23:47;69.07;;;34.28;;
42196;SDS011;27866;48.146;17.098;2023-11-19T18:27:58;61.10;;;32.83;;
42196;SDS011;27866;48.146;17.098;2023-11-19T18:32:10;54.58;;;28.75;;
42196;SDS011;27866;48.146;17.098;2023-11-19T18:36:23;48.75;;;25.40;;
42196;SDS011;27866;48.146;17.098;2023-11-19T18:40:35;50.88;;;26.88;;
42196;SDS011;27866;48.146;17.098;2023-11-19T18:44:46;42.38;;;24.00;;
42196;SDS011;27866;48.146;17.098;2023-11-19T18:48:57;47.08;;;26.13;;
42196;SDS011;27866;48.146;17.098;2023-11-19T18:53:09;45.03;;;25.63;;
42196;SDS011;27866;48.146;17.098;2023-11-19T18:57:21;45.05;;;24.73;;
42196;SDS011;27866;48.146;17.098;2023-11-19T19:01:32;48.90;;;26.75;;
42196;SDS011;27866;48.146;17.098;2023-11-19T19:05:43;47.13;;;25.63;;
42196;SDS011;27866;48.146;17.098;2023-11-19T19:09:54;47.35;;;25.17;;
42196;SDS011;27866;48.146;17.098;2023-11-19T19:14:06;46.55;;;24.52;;
42196;SDS011;27866;48.146;17.098;2023-11-19T19:18:18;51.55;;;26.52;;
42196;SDS011;27866;48.146;17.098;2023-11-19T19:22:29;53.08;;;27.27;;
42196;SDS011;27866;48.146;17.098;2023-11-19T19:26:40;52.33;;;26.83;;
42196;SDS011;27866;48.146;17.098;2023-11-19T19:30:52;50.72;;;26.17;;
42196;SDS011;27866;48.146;17.098;2023-11-19T19:35:03;58.33;;;27.58;;
42196;SDS011;27866;48.146;17.098;2023-11-19T19:39:15;61.50;;;27.73;;
42196;SDS011;27866;48.146;17.098;2023-11-19T19:43:28;53.65;;;27.00;;
42196;SDS011;27866;48.146;17.098;2023-11-19T19:47:39;66.22;;;30.17;;
42196;SDS011;27866;48.146;17.098;2023-11-19T19:51:51;79.85;;;32.75;;
42196;SDS011;27866;48.146;17.098;2023-11-19T19:56:03;74.75;;;31.60;;
42196;SDS011;27866;48.146;17.098;2023-11-19T20:00:15;72.93;;;31.95;;
42196;SDS011;27866;48.146;17.098;2023-11-19T20:04:27;64.07;;;28.88;;
42196;SDS011;27866;48.146;17.098;2023-11-19T20:08:38;61.45;;;27.85;;
42196;SDS011;27866;48.146;17.098;2023-11-19T20:12:50;55.30;;;26.90;;
42196;SDS011;27866;48.146;17.098;2023-11-19T20:17:02;51.20;;;26.50;;
42196;SDS011;27866;48.146;17.098;2023-11-19T20:21:13;48.50;;;24.17;;
42196;SDS011;27866;48.146;17.098;2023-11-19T20:25:24;46.10;;;24.25;;
42196;SDS011;27866;48.146;17.098;2023-11-19T20:29:35;44.63;;;24.35;;
42196;SDS011;27866;48.146;17.098;2023-11-19T20:33:46;53.78;;;25.40;;
42196;SDS011;27866;48.146;17.098;2023-11-19T20:37:58;50.90;;;25.08;;
42196;SDS011;27866;48.146;17.098;2023-11-19T20:42:10;48.47;;;24.60;;
42196;SDS011;27866;48.146;17.098;2023-11-19T20:46:21;53.28;;;25.00;;
42196;SDS011;27866;48.146;17.098;2023-11-19T20:50:33;45.67;;;24.10;;
42196;SDS011;27866;48.146;17.098;2023-11-19T20:54:44;46.67;;;24.30;;
42196;SDS011;27866;48.146;17.098;2023-11-19T20:58:57;44.47;;;23.60;;
42196;SDS011;27866;48.146;17.098;2023-11-19T21:03:09;41.58;;;22.65;;
42196;SDS011;27866;48.146;17.098;2023-11-19T21:07:21;40.47;;;22.38;;
42196;SDS011;27866;48.146;17.098;2023-11-19T21:11:32;42.40;;;22.33;;
42196;SDS011;27866;48.146;17.098;2023-11-19T21:15:43;43.08;;;22.40;;
42196;SDS011;27866;48.146;17.098;2023-11-19T21:19:57;38.28;;;20.88;;
42196;SDS011;27866;48.146;17.098;2023-11-19T21:24:09;42.25;;;21.17;;
42196;SDS011;27866;48.146;17.098;2023-11-19T21:28:21;36.55;;;20.58;;
42196;SDS011;27866;48.146;17.098;2023-11-19T21:32:37;39.50;;;21.13;;
42196;SDS011;27866;48.146;17.098;2023-11-19T21:36:48;38.72;;;22.45;;
42196;SDS011;27866;48.146;17.098;2023-11-19T21:40:59;37.88;;;21.80;;
42196;SDS011;27866;48.146;17.098;2023-11-19T21:45:11;42.03;;;23.10;;
42196;SDS011;27866;48.146;17.098;2023-11-19T21:49:22;40.90;;;22.23;;
42196;SDS011;27866;48.146;17.098;2023-11-19T21:53:34;37.00;;;22.02;;
42196;SDS011;27866;48.146;17.098;2023-11-19T21:57:46;37.75;;;21.40;;
42196;SDS011;27866;48.146;17.098;2023-11-19T22:01:57;34.53;;;21.30;;
42196;SDS011;27866;48.146;17.098;2023-11-19T22:06:08;40.85;;;22.23;;
42196;SDS011;27866;48.146;17.098;2023-11-19T22:10:20;43.65;;;24.30;;
42196;SDS011;27866;48.146;17.098;2023-11-19T22:14:31;49.97;;;25.83;;
42196;SDS011;27866;48.146;17.098;2023-11-19T22:18:45;55.45;;;26.63;;
42196;SDS011;27866;48.146;17.098;2023-11-19T22:22:56;46.10;;;25.85;;
42196;SDS011;27866;48.146;17.098;2023-11-19T22:27:08;48.17;;;25.55;;
42196;SDS011;27866;48.146;17.098;2023-11-19T22:31:20;49.22;;;26.50;;
42196;SDS011;27866;48.146;17.098;2023-11-19T22:35:31;53.63;;;27.15;;
42196;SDS011;27866;48.146;17.098;2023-11-19T22:39:43;54.20;;;27.55;;
42196;SDS011;27866;48.146;17.098;2023-11-19T22:43:54;52.75;;;27.20;;
42196;SDS011;27866;48.146;17.098;2023-11-19T22:48:06;53.08;;;27.05;;
42196;SDS011;27866;48.146;17.098;2023-11-19T22:52:17;51.80;;;25.67;;
42196;SDS011;27866;48.146;17.098;2023-11-19T22:56:28;50.83;;;25.95;;
42196;SDS011;27866;48.146;17.098;2023-11-19T23:00:40;46.42;;;25.70;;
42196;SDS011;27866;48.146;17.098;2023-11-19T23:04:51;45.35;;;25.38;;
42196;SDS011;27866;48.146;17.098;2023-11-19T23:09:02;45.75;;;25.17;;
42196;SDS011;27866;48.146;17.098;2023-11-19T23:13:15;33.33;;;20.52;;
42196;SDS011;27866;48.146;17.098;2023-11-19T23:17:27;46.47;;;24.27;;
42196;SDS011;27866;48.146;17.098;2023-11-19T23:21:38;47.47;;;25.35;;
42196;SDS011;27866;48.146;17.098;2023-11-19T23:25:54;46.25;;;25.73;;
42196;SDS011;27866;48.146;17.098;2023-11-19T23:30:05;55.20;;;26.73;;
42196;SDS011;27866;48.146;17.098;2023-11-19T23:34:17;52.88;;;26.20;;
42196;SDS011;27866;48.146;17.098;2023-11-19T23:38:28;58.10;;;27.95;;
42196;SDS011;27866;48.146;17.098;2023-11-19T23:42:40;51.70;;;25.70;;
42196;SDS011;27866;48.146;17.098;2023-11-19T23:46:54;43.27;;;23.60;;
42196;SDS011;27866;48.146;17.098;2023-11-19T23:51:05;40.63;;;22.58;;
42196;SDS011;27866;48.146;17.098;2023-11-19T23:55:16;43.67;;;22.75;;
42196;SDS011;27866;48.146;17.098;2023-11-19T23:59:27;46.80;;;25.13;;
